createdAt,value
2023-06-04T00:00:32.921Z,6.50
2023-06-04T00:03:01.053Z,7.20
2023-06-04T00:05:28.950Z,6.83
2023-06-04T00:07:56.754Z,6.93
2023-06-04T00:10:24.629Z,6.73
2023-06-04T00:12:52.634Z,6.77
2023-06-04T00:15:21.896Z,6.50
2023-06-04T00:17:49.914Z,6.90
2023-06-04T00:20:18.025Z,6.10
2023-06-04T00:22:46.060Z,6.70
2023-06-04T00:25:13.950Z,6.77
2023-06-04T00:27:41.796Z,6.37
2023-06-04T00:30:10.658Z,6.30
2023-06-04T00:32:40.670Z,6.27
2023-06-04T00:35:10.473Z,6.00
2023-06-04T00:37:38.466Z,6.37
2023-06-04T00:40:07.818Z,5.80
2023-06-04T00:42:35.682Z,6.20
2023-06-04T00:45:03.742Z,5.90
2023-06-04T00:47:31.678Z,6.33
2023-06-04T00:50:01.233Z,5.57
2023-06-04T00:52:29.579Z,5.47
2023-06-04T00:54:57.509Z,5.83
2023-06-04T00:57:25.522Z,5.67
2023-06-04T00:59:53.504Z,6.43
2023-06-04T01:02:26.242Z,5.13
2023-06-04T01:05:02.236Z,5.43
2023-06-04T01:07:32.675Z,5.20
2023-06-04T01:10:01.000Z,5.27
2023-06-04T01:12:28.811Z,4.77
2023-06-04T01:14:56.807Z,5.10
2023-06-04T01:17:38.292Z,4.73
2023-06-04T01:23:30.088Z,5.57
2023-06-04T01:25:58.677Z,5.10
2023-06-04T01:28:28.012Z,5.23
2023-06-04T01:30:57.738Z,5.03
2023-06-04T01:33:25.772Z,5.13
2023-06-04T01:35:53.933Z,4.83
2023-06-04T01:38:23.278Z,5.27
2023-06-04T01:40:51.852Z,5.30
2023-06-04T01:43:19.683Z,4.93
2023-06-04T01:45:47.774Z,4.67
2023-06-04T01:48:15.658Z,5.03
2023-06-04T01:50:43.504Z,5.20
2023-06-04T01:53:11.296Z,4.73
2023-06-04T01:55:40.497Z,4.90
2023-06-04T01:58:10.241Z,4.90
2023-06-04T02:00:38.177Z,4.80
2023-06-04T02:03:06.316Z,5.53
2023-06-04T02:05:34.288Z,5.93
2023-06-04T02:08:03.033Z,4.90
2023-06-04T02:10:30.955Z,5.73
2023-06-04T02:13:03.479Z,5.50
2023-06-04T02:15:32.603Z,5.10
2023-06-04T02:18:03.806Z,4.97
2023-06-04T02:20:31.760Z,5.00
2023-06-04T02:22:59.823Z,4.93
2023-06-04T02:25:28.140Z,4.70
2023-06-04T02:27:55.987Z,4.93
2023-06-04T02:30:25.220Z,5.80
2023-06-04T02:32:56.196Z,5.37
2023-06-04T02:35:25.742Z,5.10
2023-06-04T02:37:53.519Z,5.10
2023-06-04T02:40:21.747Z,4.90
2023-06-04T02:42:49.580Z,5.30
2023-06-04T02:45:17.392Z,4.93
2023-06-04T02:47:46.589Z,5.23
2023-06-04T02:50:15.782Z,4.83
2023-06-04T02:52:44.508Z,5.07
2023-06-04T02:55:14.051Z,5.43
2023-06-04T02:57:43.603Z,4.97
2023-06-04T03:00:14.070Z,5.33
2023-06-04T03:02:43.815Z,5.20
2023-06-04T03:05:14.485Z,5.00
2023-06-04T03:07:45.989Z,5.23
2023-06-04T03:10:15.495Z,5.27
2023-06-04T03:12:43.449Z,5.33
2023-06-04T03:15:11.933Z,5.37
2023-06-04T03:17:39.989Z,4.83
2023-06-04T03:20:09.366Z,5.17
2023-06-04T03:22:38.780Z,5.90
2023-06-04T03:25:07.530Z,5.13
2023-06-04T03:27:35.907Z,5.47
2023-06-04T03:30:06.403Z,5.07
2023-06-04T03:33:01.500Z,5.40
2023-06-04T03:35:29.452Z,5.10
2023-06-04T03:37:58.614Z,5.77
2023-06-04T03:40:26.805Z,5.47
2023-06-04T03:42:55.551Z,5.70
2023-06-04T03:45:28.328Z,5.23
2023-06-04T03:47:57.100Z,5.33
2023-06-04T03:50:25.359Z,5.83
2023-06-04T03:52:54.644Z,5.33
2023-06-04T03:55:25.274Z,5.93
2023-06-04T03:57:54.588Z,5.73
2023-06-04T04:00:22.754Z,5.70
2023-06-04T04:02:54.032Z,5.50
2023-06-04T04:05:26.279Z,5.23
2023-06-04T04:07:55.182Z,5.60
2023-06-04T04:10:28.391Z,5.60
2023-06-04T04:12:58.725Z,5.13
2023-06-04T04:15:28.160Z,5.00
2023-06-04T04:17:57.483Z,5.13
2023-06-04T04:20:26.577Z,5.60
2023-06-04T04:22:59.514Z,5.53
2023-06-04T04:25:29.946Z,5.20
2023-06-04T04:28:01.602Z,5.10
2023-06-04T04:30:29.728Z,5.40
2023-06-04T04:32:58.045Z,5.30
2023-06-04T04:35:33.726Z,5.27
2023-06-04T04:38:04.271Z,5.47
2023-06-04T04:40:36.532Z,5.40
2023-06-04T04:43:06.677Z,5.70
2023-06-04T04:45:35.166Z,5.33
2023-06-04T04:48:04.753Z,5.43
2023-06-04T04:50:33.581Z,5.13
2023-06-04T04:53:03.264Z,5.30
2023-06-04T04:55:31.892Z,5.60
2023-06-04T04:58:01.214Z,5.30
2023-06-04T05:00:29.598Z,4.90
2023-06-04T05:02:58.520Z,5.10
2023-06-04T05:05:26.394Z,6.50
2023-06-04T05:07:54.361Z,5.33
2023-06-04T05:10:27.374Z,5.03
2023-06-04T05:12:56.340Z,4.93
2023-06-04T05:15:29.063Z,5.37
2023-06-04T05:17:59.226Z,4.97
2023-06-04T05:20:30.814Z,5.47
2023-06-04T05:22:58.912Z,5.13
2023-06-04T05:25:28.092Z,5.03
2023-06-04T05:27:58.407Z,5.07
2023-06-04T05:30:28.281Z,5.00
2023-06-04T05:32:56.246Z,4.40
2023-06-04T05:35:27.085Z,4.20
2023-06-04T05:37:55.615Z,4.40
2023-06-04T05:40:28.374Z,4.17
2023-06-04T05:42:56.374Z,4.77
2023-06-04T05:45:24.346Z,3.73
2023-06-04T05:47:56.011Z,3.97
2023-06-04T05:50:25.978Z,3.60
2023-06-04T05:52:53.855Z,3.60
2023-06-04T05:55:22.426Z,3.40
2023-06-04T05:57:52.603Z,3.40
2023-06-04T06:00:20.684Z,3.43
2023-06-04T06:02:51.369Z,3.40
2023-06-04T06:05:36.845Z,3.33
2023-06-04T06:08:04.968Z,3.83
2023-06-04T06:10:33.361Z,3.80
2023-06-04T06:13:02.584Z,3.60
2023-06-04T06:15:35.145Z,3.73
2023-06-04T06:18:03.184Z,3.53
2023-06-04T06:20:31.021Z,3.77
2023-06-04T06:23:00.413Z,3.60
2023-06-04T06:25:28.856Z,3.90
2023-06-04T06:28:07.514Z,3.50
2023-06-04T06:30:36.778Z,3.20
2023-06-04T06:33:04.656Z,3.23
2023-06-04T06:35:32.540Z,3.60
2023-06-04T06:38:01.789Z,3.10
2023-06-04T06:40:31.426Z,3.70
2023-06-04T06:42:59.293Z,3.40
2023-06-04T06:45:27.152Z,3.37
2023-06-04T06:47:54.994Z,3.37
2023-06-04T06:50:22.857Z,3.37
2023-06-04T06:52:50.686Z,3.50
2023-06-04T06:55:20.096Z,3.03
2023-06-04T06:57:47.876Z,3.33
2023-06-04T07:00:16.831Z,3.93
2023-06-04T07:02:44.759Z,3.77
2023-06-04T07:05:14.933Z,3.83
2023-06-04T07:07:42.964Z,3.67
2023-06-04T07:10:11.629Z,3.80
2023-06-04T07:12:43.522Z,3.60
2023-06-04T07:15:11.998Z,3.63
2023-06-04T07:17:39.821Z,3.83
2023-06-04T07:20:10.432Z,3.30
2023-06-04T07:22:38.401Z,3.67
2023-06-04T07:25:07.620Z,3.40
2023-06-04T07:27:36.059Z,3.70
2023-06-04T07:30:06.576Z,3.73
2023-06-04T07:32:34.497Z,3.40
2023-06-04T07:35:02.328Z,3.40
2023-06-04T07:37:30.239Z,3.67
2023-06-04T07:39:58.004Z,3.33
2023-06-04T07:42:25.926Z,3.67
2023-06-04T07:44:53.729Z,3.90
2023-06-04T07:47:22.900Z,3.87
2023-06-04T07:50:01.823Z,3.53
2023-06-04T07:52:31.328Z,3.53
2023-06-04T07:54:59.350Z,4.37
2023-06-04T07:57:27.223Z,3.53
2023-06-04T07:59:55.042Z,3.73
2023-06-04T08:02:24.478Z,3.53
2023-06-04T08:04:52.358Z,3.50
2023-06-04T08:07:20.363Z,3.50
2023-06-04T08:09:48.219Z,3.27
2023-06-04T08:12:17.166Z,3.80
2023-06-04T08:14:45.106Z,3.40
2023-06-04T08:17:12.963Z,3.50
2023-06-04T08:19:42.183Z,3.37
2023-06-04T08:22:12.241Z,3.40
2023-06-04T08:24:40.173Z,3.40
2023-06-04T08:27:09.331Z,3.60
2023-06-04T08:29:38.169Z,3.23
2023-06-04T08:32:06.725Z,3.43
2023-06-04T08:34:34.626Z,3.77
2023-06-04T08:37:04.208Z,3.50
2023-06-04T08:39:32.509Z,3.13
2023-06-04T08:42:04.961Z,3.50
2023-06-04T08:44:32.948Z,3.70
2023-06-04T08:47:05.038Z,3.03
2023-06-04T08:49:36.953Z,3.43
2023-06-04T08:52:06.970Z,3.20
2023-06-04T08:54:35.313Z,3.40
2023-06-04T08:57:03.297Z,3.40
2023-06-04T08:59:31.223Z,3.53
2023-06-04T09:02:00.189Z,3.47
2023-06-04T09:04:28.270Z,3.50
2023-06-04T09:07:04.525Z,2.90
2023-06-04T09:09:39.164Z,3.40
2023-06-04T09:12:12.113Z,3.07
2023-06-04T09:14:40.245Z,3.20
2023-06-04T09:17:08.192Z,3.17
2023-06-04T09:19:36.044Z,3.10
2023-06-04T09:22:04.228Z,3.20
2023-06-04T09:24:44.218Z,3.10
2023-06-04T09:27:13.858Z,3.00
2023-06-04T09:29:41.979Z,3.30
2023-06-04T09:32:09.898Z,3.30
2023-06-04T09:34:37.979Z,3.40
2023-06-04T09:37:16.199Z,3.20
2023-06-04T09:39:45.687Z,4.03
2023-06-04T09:42:14.162Z,4.10
2023-06-04T09:44:46.716Z,4.17
2023-06-04T09:47:15.014Z,3.70
2023-06-04T09:49:43.472Z,3.40
2023-06-04T09:52:11.621Z,3.30
2023-06-04T09:54:40.205Z,3.20
2023-06-04T09:57:17.953Z,3.30
2023-06-04T09:59:47.667Z,3.00
2023-06-04T10:02:17.497Z,3.70
2023-06-04T10:04:50.836Z,3.20
2023-06-04T10:07:19.091Z,3.63
2023-06-04T10:09:47.630Z,3.43
2023-06-04T10:12:18.157Z,3.57
2023-06-04T10:14:53.911Z,3.37
2023-06-04T10:17:26.129Z,3.10
2023-06-04T10:19:55.403Z,3.07
2023-06-04T10:22:23.965Z,3.40
2023-06-04T10:24:52.192Z,3.40
2023-06-04T10:27:23.489Z,3.30
2023-06-04T10:29:53.592Z,3.33
2023-06-04T10:32:21.953Z,3.40
2023-06-04T10:34:50.148Z,3.30
2023-06-04T10:37:22.573Z,3.30
2023-06-04T10:39:54.188Z,3.30
2023-06-04T10:42:24.084Z,3.10
2023-06-04T10:44:56.554Z,3.00
2023-06-04T10:47:27.306Z,2.87
2023-06-04T10:49:56.826Z,3.00
2023-06-04T10:52:24.806Z,3.17
2023-06-04T10:54:56.375Z,3.17
2023-06-04T10:57:26.035Z,3.27
2023-06-04T10:59:57.212Z,3.20
2023-06-04T11:02:25.590Z,3.37
2023-06-04T11:05:02.554Z,3.30
2023-06-04T11:07:31.135Z,3.40
2023-06-04T11:09:59.288Z,3.40
2023-06-04T11:12:28.924Z,3.70
2023-06-04T11:14:57.603Z,3.20
2023-06-04T11:17:25.772Z,3.10
2023-06-04T11:19:56.634Z,2.97
2023-06-04T11:22:25.595Z,3.03
2023-06-04T11:25:01.884Z,3.13
2023-06-04T11:27:38.383Z,4.07
2023-06-04T11:30:09.473Z,3.27
2023-06-04T11:32:37.468Z,3.50
2023-06-04T11:35:07.393Z,3.37
2023-06-04T11:37:36.368Z,3.30
2023-06-04T11:40:06.596Z,3.57
2023-06-04T11:42:37.269Z,3.33
2023-06-04T11:45:05.994Z,3.40
2023-06-04T11:47:37.788Z,3.60
2023-06-04T11:50:08.932Z,3.60
2023-06-04T11:52:39.003Z,3.23
2023-06-04T11:55:10.738Z,3.23
2023-06-04T11:57:40.803Z,4.00
2023-06-04T12:00:11.418Z,4.07
2023-06-04T12:02:41.163Z,2.90
2023-06-04T12:05:16.131Z,3.60
2023-06-04T12:07:43.974Z,3.43
2023-06-04T12:10:12.936Z,3.60
2023-06-04T12:12:42.829Z,3.53
2023-06-04T12:15:11.886Z,3.50
2023-06-04T12:17:39.984Z,3.30
2023-06-04T12:20:14.701Z,3.60
2023-06-04T12:22:47.737Z,3.50
2023-06-04T12:25:26.920Z,2.87
2023-06-04T12:27:56.197Z,3.30
2023-06-04T12:30:24.531Z,3.30
2023-06-04T12:32:52.943Z,3.73
2023-06-04T12:35:21.883Z,3.33
2023-06-04T12:37:49.786Z,3.40
2023-06-04T12:40:17.960Z,3.60
2023-06-04T12:42:45.944Z,3.40
2023-06-04T12:45:16.470Z,3.10
2023-06-04T12:47:44.815Z,3.50
2023-06-04T12:50:12.849Z,3.30
2023-06-04T12:52:40.993Z,3.17
2023-06-04T12:55:10.213Z,3.60
2023-06-04T12:57:38.301Z,3.20
2023-06-04T13:00:08.399Z,3.20
2023-06-04T13:02:43.842Z,3.47
2023-06-04T13:05:12.209Z,3.60
2023-06-04T13:07:40.177Z,3.30
2023-06-04T13:10:09.091Z,3.60
2023-06-04T13:12:37.071Z,3.40
2023-06-04T13:15:06.042Z,3.03
2023-06-04T13:17:34.887Z,3.40
2023-06-04T13:20:05.880Z,3.43
2023-06-04T13:22:34.004Z,3.80
2023-06-04T13:25:01.935Z,3.50
2023-06-04T13:27:29.935Z,3.57
2023-06-04T13:29:57.929Z,3.60
2023-06-04T13:32:26.032Z,3.40
2023-06-04T13:34:54.193Z,3.50
2023-06-04T13:37:23.443Z,3.20
2023-06-04T13:39:51.319Z,3.73
2023-06-04T13:42:19.199Z,3.50
2023-06-04T13:44:47.241Z,3.33
2023-06-04T13:47:15.354Z,3.57
2023-06-04T13:49:43.374Z,3.80
2023-06-04T13:52:11.289Z,3.53
2023-06-04T13:54:40.641Z,3.60
2023-06-04T13:57:12.678Z,3.93
2023-06-04T13:59:40.789Z,3.67
2023-06-04T14:02:08.928Z,3.50
2023-06-04T14:04:37.080Z,3.90
2023-06-04T14:07:06.656Z,4.17
2023-06-04T14:09:34.951Z,3.80
2023-06-04T14:12:07.596Z,3.90
2023-06-04T14:14:40.589Z,3.77
2023-06-04T14:17:08.941Z,3.63
2023-06-04T14:19:37.014Z,3.70
2023-06-04T14:22:05.404Z,3.70
2023-06-04T14:24:33.375Z,3.80
2023-06-04T14:27:01.791Z,3.50
2023-06-04T14:29:31.266Z,3.53
2023-06-04T14:31:59.753Z,3.30
2023-06-04T14:34:30.045Z,3.80
2023-06-04T14:37:00.687Z,3.40
2023-06-04T14:39:29.313Z,3.40
2023-06-04T14:41:57.417Z,3.20
2023-06-04T14:44:25.418Z,3.77
2023-06-04T14:46:57.809Z,3.77
2023-06-04T14:49:26.982Z,3.80
2023-06-04T14:51:55.004Z,3.60
2023-06-04T14:54:22.910Z,3.80
2023-06-04T14:56:51.104Z,3.63
2023-06-04T14:59:19.009Z,3.87
2023-06-04T15:01:47.406Z,3.90
2023-06-04T15:04:16.871Z,3.50
2023-06-04T15:06:45.237Z,3.57
2023-06-04T15:09:13.051Z,4.17
2023-06-04T15:11:40.967Z,3.57
2023-06-04T15:14:08.818Z,3.50
2023-06-04T15:16:36.700Z,3.63
2023-06-04T15:19:04.745Z,3.93
2023-06-04T15:21:34.009Z,3.50
2023-06-04T15:24:01.941Z,3.47
2023-06-04T15:26:29.999Z,3.60
2023-06-04T15:28:58.311Z,3.87
2023-06-04T15:31:26.217Z,3.57
2023-06-04T15:33:54.159Z,3.97
2023-06-04T15:36:21.991Z,3.40
2023-06-04T15:38:51.944Z,3.27
2023-06-04T15:41:23.518Z,3.50
2023-06-04T15:43:52.195Z,3.83
2023-06-04T15:46:20.146Z,4.10
2023-06-04T15:48:50.053Z,4.07
2023-06-04T15:51:17.967Z,3.57
2023-06-04T15:53:45.948Z,3.60
2023-06-04T15:56:17.039Z,3.67
2023-06-04T15:58:45.920Z,4.03
2023-06-04T16:01:13.797Z,3.60
2023-06-04T16:03:41.875Z,3.90
2023-06-04T16:06:10.067Z,3.67
2023-06-04T16:08:38.670Z,4.00
2023-06-04T16:11:06.703Z,3.80
2023-06-04T16:13:38.055Z,3.37
2023-06-04T16:16:06.378Z,3.60
2023-06-04T16:18:34.471Z,3.60
2023-06-04T16:21:02.877Z,3.47
2023-06-04T16:23:30.741Z,5.00
2023-06-04T16:25:58.802Z,3.70
2023-06-04T16:28:26.609Z,3.93
2023-06-04T16:30:55.859Z,3.83
2023-06-04T16:33:23.723Z,3.40
2023-06-04T16:35:51.621Z,3.83
2023-06-04T16:38:19.962Z,3.73
2023-06-04T16:40:53.387Z,3.57
2023-06-04T16:43:21.349Z,3.70
2023-06-04T16:45:49.207Z,4.23
2023-06-04T16:48:18.832Z,3.93
2023-06-04T16:50:46.679Z,3.90
2023-06-04T16:53:14.575Z,3.53
2023-06-04T16:55:42.424Z,3.80
2023-06-04T16:58:16.777Z,4.37
2023-06-04T17:00:46.010Z,4.37
2023-06-04T17:03:14.324Z,3.50
2023-06-04T17:05:43.811Z,4.13
2023-06-04T17:08:11.734Z,3.80
2023-06-04T17:10:40.097Z,4.17
2023-06-04T17:13:09.164Z,4.00
2023-06-04T17:15:37.028Z,3.90
2023-06-04T17:18:11.316Z,4.17
2023-06-04T17:20:40.464Z,3.80
2023-06-04T17:23:22.588Z,3.83
2023-06-04T17:25:50.832Z,4.40
2023-06-04T17:28:19.133Z,3.90
2023-06-04T17:30:47.651Z,3.90
2023-06-04T17:33:16.319Z,4.30
2023-06-04T17:35:44.381Z,3.90
2023-06-04T17:38:15.062Z,4.10
2023-06-04T17:40:44.476Z,4.03
2023-06-04T17:43:12.730Z,3.90
2023-06-04T17:45:40.614Z,4.20
2023-06-04T17:48:08.734Z,4.30
2023-06-04T17:50:37.039Z,4.10
2023-06-04T17:53:06.419Z,4.33
2023-06-04T17:55:34.376Z,4.33
2023-06-04T17:58:03.839Z,4.17
2023-06-04T18:00:31.802Z,3.73
2023-06-04T18:02:59.651Z,4.30
2023-06-04T18:05:27.720Z,4.17
2023-06-04T18:07:56.006Z,4.20
2023-06-04T18:10:24.162Z,4.20
2023-06-04T18:12:52.088Z,4.10
2023-06-04T18:15:21.839Z,4.47
2023-06-04T18:17:49.761Z,4.50
2023-06-04T18:20:17.872Z,4.77
2023-06-04T18:22:46.325Z,4.47
2023-06-04T18:25:14.205Z,4.10
2023-06-04T18:27:42.446Z,4.17
2023-06-04T18:30:10.921Z,4.53
2023-06-04T18:32:40.164Z,4.50
2023-06-04T18:35:10.465Z,4.23
2023-06-04T18:37:38.313Z,4.50
2023-06-04T18:40:07.329Z,4.10
2023-06-04T18:42:35.186Z,4.23
2023-06-04T18:45:05.251Z,4.00
2023-06-04T18:47:33.188Z,4.73
2023-06-04T18:50:02.398Z,4.10
2023-06-04T18:52:30.284Z,4.60
2023-06-04T18:54:58.213Z,4.43
2023-06-04T18:57:26.072Z,4.67
2023-06-04T18:59:54.285Z,4.23
2023-06-04T19:02:22.293Z,4.50
2023-06-04T19:04:50.895Z,4.70
2023-06-04T19:07:20.959Z,4.33
2023-06-04T19:09:48.892Z,4.70
2023-06-04T19:12:16.869Z,4.30
2023-06-04T19:14:47.810Z,4.00
2023-06-04T19:17:19.845Z,4.13
2023-06-04T19:19:49.366Z,4.43
2023-06-04T19:22:17.719Z,4.27
2023-06-04T19:24:47.234Z,4.77
2023-06-04T19:27:17.655Z,4.47
2023-06-04T19:29:46.894Z,4.17
2023-06-04T19:32:15.123Z,4.47
2023-06-04T19:34:43.645Z,4.50
2023-06-04T19:37:12.167Z,4.50
2023-06-04T19:39:40.118Z,4.83
2023-06-04T19:42:09.455Z,4.80
2023-06-04T19:44:37.787Z,4.17
2023-06-04T19:47:06.512Z,4.70
2023-06-04T19:49:34.889Z,4.67
2023-06-04T19:52:03.378Z,4.67
2023-06-04T19:54:31.316Z,4.70
2023-06-04T19:56:59.309Z,4.27
2023-06-04T19:59:28.658Z,4.63
2023-06-04T20:01:56.682Z,4.40
2023-06-04T20:04:25.026Z,4.43
2023-06-04T20:06:53.037Z,4.60
2023-06-04T20:09:21.388Z,4.23
2023-06-04T20:11:52.878Z,4.47
2023-06-04T20:14:23.551Z,4.50
2023-06-04T20:16:53.275Z,4.50
2023-06-04T20:19:23.258Z,4.93
2023-06-04T20:21:51.703Z,4.87
2023-06-04T20:24:21.005Z,4.57
2023-06-04T20:26:49.335Z,4.77
2023-06-04T20:29:24.619Z,4.50
2023-06-04T20:31:53.972Z,4.90
2023-06-04T20:34:22.781Z,4.60
2023-06-04T20:36:53.675Z,4.63
2023-06-04T20:39:21.600Z,4.43
2023-06-04T20:41:49.639Z,4.60
2023-06-04T20:44:19.460Z,4.10
2023-06-04T20:46:47.322Z,4.63
2023-06-04T20:49:19.266Z,4.53
2023-06-04T20:51:47.251Z,4.73
2023-06-04T20:54:15.203Z,4.93
2023-06-04T20:56:44.535Z,4.70
2023-06-04T20:59:12.418Z,4.43
2023-06-04T21:01:40.366Z,4.70
2023-06-04T21:04:09.108Z,4.63
2023-06-04T21:06:38.506Z,4.60
2023-06-04T21:09:07.507Z,4.77
2023-06-04T21:11:35.350Z,4.70
2023-06-04T21:14:03.225Z,5.20
2023-06-04T21:16:31.204Z,4.83
2023-06-04T21:18:59.038Z,4.77
2023-06-04T21:21:28.550Z,4.93
2023-06-04T21:23:57.806Z,4.50
2023-06-04T21:26:26.156Z,4.80
2023-06-04T21:28:54.045Z,4.40
2023-06-04T21:31:22.077Z,4.43
2023-06-04T21:33:50.009Z,4.50
2023-06-04T21:36:17.973Z,4.50
2023-06-04T21:38:45.926Z,4.37
2023-06-04T21:41:15.170Z,4.67
2023-06-04T21:43:43.042Z,4.87
2023-06-04T21:46:11.568Z,4.57
2023-06-04T21:48:39.404Z,4.50
2023-06-04T21:51:08.226Z,4.97
2023-06-04T21:53:36.326Z,4.53
2023-06-04T21:56:04.490Z,4.57
2023-06-04T21:58:33.752Z,4.60
2023-06-04T22:01:01.782Z,4.80
2023-06-04T22:03:30.186Z,4.60
2023-06-04T22:05:58.308Z,4.60
2023-06-04T22:08:26.274Z,4.90
2023-06-04T22:10:54.210Z,4.97
2023-06-04T22:13:22.702Z,4.63
2023-06-04T22:15:51.916Z,4.70
2023-06-04T22:18:20.070Z,4.77
2023-06-04T22:20:48.337Z,4.83
2023-06-04T22:23:16.179Z,4.73
2023-06-04T22:25:43.978Z,4.93
2023-06-04T22:28:11.803Z,4.90
2023-06-04T22:30:39.653Z,4.60
2023-06-04T22:33:09.911Z,4.53
2023-06-04T22:35:38.306Z,4.60
2023-06-04T22:38:06.325Z,5.00
2023-06-04T22:40:34.244Z,5.27
2023-06-04T22:43:02.453Z,5.03
2023-06-04T22:45:30.454Z,4.83
2023-06-04T22:47:58.645Z,4.70
2023-06-04T22:50:28.762Z,4.60
2023-06-04T22:52:56.776Z,5.00
2023-06-04T22:55:25.318Z,4.43
2023-06-04T22:57:53.418Z,4.80
2023-06-04T23:00:21.790Z,4.70
2023-06-04T23:02:51.799Z,5.23
2023-06-04T23:05:21.296Z,4.83
2023-06-04T23:07:51.103Z,4.67
2023-06-04T23:10:19.298Z,4.80
2023-06-04T23:12:47.781Z,4.90
2023-06-04T23:15:21.692Z,4.87
2023-06-04T23:17:50.343Z,4.93
2023-06-04T23:20:19.089Z,5.07
2023-06-04T23:22:47.228Z,4.90
2023-06-04T23:25:19.802Z,4.47
2023-06-04T23:27:47.716Z,5.00
2023-06-04T23:30:16.423Z,4.93
2023-06-04T23:32:44.895Z,5.20
2023-06-04T23:35:12.906Z,4.30
2023-06-04T23:37:41.060Z,4.53
2023-06-04T23:40:09.879Z,4.47
2023-06-04T23:42:39.168Z,5.00
2023-06-04T23:45:07.958Z,4.57
2023-06-04T23:47:35.978Z,4.57
2023-06-04T23:50:04.103Z,5.07
2023-06-04T23:52:32.054Z,4.90
2023-06-04T23:54:59.858Z,5.20
2023-06-04T23:57:27.890Z,5.17
2023-06-04T23:59:57.769Z,5.33
